»·PEaware :: DAL450 KLAS-KSNA

DAL450 :: KLAS-KSNA

FLIGHT INFORMATION

Flight Status: Arrived
Operator:
Delta Air Lines
More flights by this operator :: More flights under this callsign
Pilot: Sergei F. (8485)
Aircraft: BOEING 757-200
(B752)
More flights by this aircraft type
Origin: KLAS McCarran Intl
United States
Destination: KSNA John Wayne-Orange Co
United States
More flights between these airports :: More routes between these airports
Route: BOACH8 WHIGG FEYLA DSNEE2
File this flight plan on PilotEdge
Remarks:
Altitude:
(Current/Filed)
280ft
Speed:
(Current/Filed)
300kts
Departed: 03-Jan-18 10:12 PM
Arrived: 03-Jan-18 10:56 PM
Distance/Time
Traveled:
197nm/0:43
Distance/Time
To Go:
Arrived

Flight Plot

Page will automatically refresh every two minutes.

Flight plan parsing failed; only flown route is shown


Map Options




Map Legend


Flown Route
Filed Route
Departure Airport
Arrival Airport
Navaid (VOR, NDB)
Fix

Horizontal Profiles

Position Reports

Time Latitude Longitude Heading Altitude Ground
Speed
03-Jan-18 21:44 36.080688 -115.138769 315 2072ft 0kts
03-Jan-18 21:45 36.080688 -115.138769 315 2072ft 0kts
03-Jan-18 21:46 36.080688 -115.138769 315 2072ft 0kts
03-Jan-18 21:47 36.080688 -115.138769 315 2072ft 0kts
03-Jan-18 21:48 36.080688 -115.138769 315 2072ft 0kts
03-Jan-18 21:49 36.081095 -115.138250 315 2070ft 0kts
03-Jan-18 21:50 36.081095 -115.138250 315 2070ft 0kts
03-Jan-18 21:51 36.081011 -115.138141 314 2069ft 0kts
03-Jan-18 21:52 36.080487 -115.137718 328 2070ft 2kts
03-Jan-18 21:53 36.079976 -115.137220 314 2070ft 0kts
03-Jan-18 21:54 36.079985 -115.137228 314 2070ft 0kts
03-Jan-18 21:55 36.079995 -115.137237 314 2070ft 0kts
03-Jan-18 21:56 36.080004 -115.137244 314 2070ft 0kts
03-Jan-18 21:57 36.080004 -115.137244 314 2070ft 0kts
03-Jan-18 21:58 36.080004 -115.137244 314 2070ft 0kts
03-Jan-18 21:59 36.080004 -115.137244 314 2070ft 0kts
03-Jan-18 22:00 36.080004 -115.137244 314 2070ft 0kts
03-Jan-18 22:01 36.080004 -115.137244 314 2070ft 0kts
03-Jan-18 22:02 36.080004 -115.137244 314 2070ft 0kts
03-Jan-18 22:03 36.080004 -115.137244 314 2070ft 0kts
03-Jan-18 22:04 36.080004 -115.137244 314 2070ft 0kts
03-Jan-18 22:05 36.080004 -115.137244 314 2070ft 0kts
03-Jan-18 22:06 36.080004 -115.137244 314 2070ft 0kts
03-Jan-18 22:07 36.080004 -115.137244 314 2070ft 0kts
03-Jan-18 22:08 36.080004 -115.137244 314 2070ft 0kts
03-Jan-18 22:09 36.080004 -115.137244 314 2070ft 0kts
03-Jan-18 22:10 36.080004 -115.137244 314 2070ft 0kts
03-Jan-18 22:11 36.080080 -115.137888 245 2071ft 5kts
03-Jan-18 22:12 36.079314 -115.138945 223 2077ft 2kts
03-Jan-18 22:13 36.078268 -115.138659 91 2079ft 10kts
03-Jan-18 22:14 36.078272 -115.132947 89 2061ft 22kts
03-Jan-18 22:15 36.078274 -115.125642 89 2044ft 18kts
03-Jan-18 22:16 36.077535 -115.121573 131 2040ft 14kts
03-Jan-18 22:17 36.076424 -115.122027 269 2042ft 0kts
03-Jan-18 22:18 36.076379 -115.150015 270 2260ft 168kts
03-Jan-18 22:19 36.076871 -115.206936 270 4338ft 162kts
03-Jan-18 22:20 36.061051 -115.253694 205 6118ft 175kts
03-Jan-18 22:21 36.009750 -115.282701 205 7568ft 240kts
03-Jan-18 22:22 35.941089 -115.305318 186 9319ft 267kts
03-Jan-18 22:23 35.867441 -115.313929 187 11194ft 280kts
03-Jan-18 22:24 35.784496 -115.306743 177 13354ft 317kts
03-Jan-18 22:25 35.694698 -115.300448 194 15845ft 328kts
03-Jan-18 22:26 35.624398 -115.368098 228 18397ft 331kts
03-Jan-18 22:27 35.561875 -115.451377 228 20886ft 335kts
03-Jan-18 22:28 35.498432 -115.536463 228 23008ft 345kts
03-Jan-18 22:29 35.433400 -115.624186 228 24988ft 353kts
03-Jan-18 22:30 35.370172 -115.709248 228 26894ft 356kts
03-Jan-18 22:31 35.302963 -115.799436 228 28221ft 365kts
03-Jan-18 22:32 35.231359 -115.895251 227 28213ft 387kts
03-Jan-18 22:33 35.156779 -115.989787 226 28212ft 386kts
03-Jan-18 22:34 35.081149 -116.085046 226 28215ft 403kts
03-Jan-18 22:35 35.003514 -116.182539 226 28215ft 404kts
03-Jan-18 22:36 34.924937 -116.280937 226 28217ft 405kts
03-Jan-18 22:37 34.852027 -116.372853 227 28205ft 405kts
03-Jan-18 22:38 34.773437 -116.472921 227 26734ft 406kts
03-Jan-18 22:39 34.696886 -116.569728 224 25305ft 383kts
03-Jan-18 22:40 34.616413 -116.649889 221 23257ft 373kts
03-Jan-18 22:41 34.538911 -116.725720 220 21267ft 365kts
03-Jan-18 22:42 34.464147 -116.805922 225 19992ft 361kts
03-Jan-18 22:43 34.391912 -116.889902 225 18083ft 346kts
03-Jan-18 22:44 34.322335 -116.970409 224 15299ft 340kts
03-Jan-18 22:45 34.251805 -117.044125 212 13942ft 333kts
03-Jan-18 22:46 34.173636 -117.100645 208 13151ft 331kts
03-Jan-18 22:47 34.091701 -117.145184 205 12674ft 329kts
03-Jan-18 22:48 34.008655 -117.189998 209 12203ft 327kts
03-Jan-18 22:49 33.946348 -117.266527 230 10655ft 320kts
03-Jan-18 22:50 33.889992 -117.345912 229 9061ft 314kts
03-Jan-18 22:51 33.837695 -117.419676 231 8065ft 256kts
03-Jan-18 22:52 33.821268 -117.496308 271 7318ft 244kts
03-Jan-18 22:53 33.822132 -117.573370 271 6923ft 207kts
03-Jan-18 22:54 33.835297 -117.636033 302 6308ft 195kts
03-Jan-18 22:55 33.862699 -117.690378 301 5322ft 192kts
03-Jan-18 22:56 33.884014 -117.746485 254 4335ft 191kts
03-Jan-18 22:57 33.838496 -117.764797 203 3384ft 187kts
03-Jan-18 22:58 33.795963 -117.792495 207 2575ft 166kts
03-Jan-18 22:59 33.756517 -117.817525 207 1726ft 147kts
03-Jan-18 23:00 33.722091 -117.839416 208 962ft 135kts
03-Jan-18 23:01 33.688205 -117.860926 208 244ft 141kts
03-Jan-18 23:02 33.668480 -117.873407 205 61ft 12kts
03-Jan-18 23:03 33.668027 -117.872049 39 61ft 7kts
03-Jan-18 23:04 33.670728 -117.869260 39 57ft 16kts
03-Jan-18 23:05 33.673980 -117.866567 27 54ft 13kts
03-Jan-18 23:06 33.675405 -117.864971 116 51ft 1kts
03-Jan-18 23:07 33.675394 -117.864945 117 51ft 0kts
03-Jan-18 23:08 33.675394 -117.864945 117 51ft 0kts
03-Jan-18 23:09 33.675394 -117.864945 117 51ft 0kts
03-Jan-18 23:10 33.675394 -117.864945 117 51ft 0kts
03-Jan-18 23:11 33.675394 -117.864945 117 51ft 0kts
03-Jan-18 23:12 33.675394 -117.864945 117 51ft 0kts
03-Jan-18 23:13 33.675394 -117.864945 117 51ft 0kts
03-Jan-18 23:14 33.675394 -117.864945 117 51ft 0kts
03-Jan-18 23:15 33.675394 -117.864945 117 51ft 0kts
03-Jan-18 23:16 33.675394 -117.864945 117 51ft 0kts

Navigation Log

Ident Type
Flight plan parsing failed, navigation log unavailable